Time;durP1;ratioP1;P1;durP2;ratioP2;P2;SDS_P1;SDS_P2;PMS_P1;PMS_P2;Temp;Humidity;BMP_temperature;BMP_pressure;BME280_temperature;BME280_humidity;BME280_pressure;Samples;Min_cycle;Max_cycle;Signal;HPM_P1;HPM_P2
2022/09/15 00:00:17;;;;;;;5.23;4.73;;;20.60;99.90;;;;;;5015986;28;20625;-85
2022/09/15 00:02:43;;;;;;;6.77;5.20;;;20.50;99.90;;;;;;5013325;28;20178;-85
2022/09/15 00:05:09;;;;;;;5.40;4.60;;;20.50;99.90;;;;;;5010583;28;20177;-84
2022/09/15 00:07:35;;;;;;;6.27;4.70;;;20.50;99.90;;;;;;5011501;28;20655;-84
2022/09/15 00:10:02;;;;;;;6.20;4.87;;;20.50;99.90;;;;;;5011682;28;20188;-84
2022/09/15 00:12:28;;;;;;;5.00;4.50;;;20.60;99.90;;;;;;5011499;28;20230;-86
2022/09/15 00:14:54;;;;;;;5.17;4.77;;;20.60;99.90;;;;;;5011836;28;20522;-86
2022/09/15 00:17:20;;;;;;;5.50;4.97;;;20.60;99.90;;;;;;5011280;28;20672;-86
2022/09/15 00:19:46;;;;;;;4.60;4.30;;;20.60;99.90;;;;;;5011256;28;20181;-85
2022/09/15 00:22:12;;;;;;;6.47;4.73;;;20.50;99.90;;;;;;5011521;28;20173;-86
2022/09/15 00:24:37;;;;;;;5.00;4.47;;;20.50;99.90;;;;;;5010063;28;20220;-86
2022/09/15 00:27:03;;;;;;;4.87;4.57;;;20.50;99.90;;;;;;5011596;28;20173;-85
2022/09/15 00:29:29;;;;;;;5.20;4.80;;;20.50;99.90;;;;;;5011099;28;20177;-85
2022/09/15 00:31:55;;;;;;;7.13;4.73;;;20.50;99.90;;;;;;5011407;28;20177;-85
2022/09/15 00:34:21;;;;;;;7.37;5.17;;;20.50;99.90;;;;;;5010785;28;20189;-86
2022/09/15 00:36:47;;;;;;;5.87;5.30;;;20.50;99.90;;;;;;5009774;28;20185;-85
2022/09/15 00:39:12;;;;;;;5.73;4.90;;;20.50;99.90;;;;;;5009878;28;20724;-88
2022/09/15 00:41:39;;;;;;;7.37;5.33;;;20.40;99.90;;;;;;5011034;28;20188;-87
2022/09/15 00:44:34;;;;;;;5.30;4.80;;;20.40;99.90;;;;;;5011530;28;20192;-84
2022/09/15 00:47:01;;;;;;;6.37;4.60;;;20.40;99.90;;;;;;5009626;28;20228;-85
2022/09/15 00:49:35;;;;;;;5.20;4.80;;;20.30;99.90;;;;;;5013471;28;20184;-85
2022/09/15 00:52:06;;;;;;;4.77;4.47;;;20.30;99.90;;;;;;5017557;28;20172;-86
2022/09/15 00:54:40;;;;;;;4.20;3.90;;;20.30;99.90;;;;;;5011263;28;20214;-86
2022/09/15 00:57:12;;;;;;;6.03;3.93;;;20.30;99.90;;;;;;5010868;28;20227;-85
2022/09/15 00:59:39;;;;;;;4.67;4.37;;;20.30;99.90;;;;;;5009983;28;20169;-86
2022/09/15 01:02:26;;;;;;;5.23;4.73;;;20.40;99.90;;;;;;5010502;28;20288;-87
2022/09/15 01:04:54;;;;;;;5.17;4.70;;;20.40;99.90;;;;;;5010984;28;20180;-85
2022/09/15 01:07:33;;;;;;;4.50;4.20;;;20.30;99.90;;;;;;5011057;28;20173;-86
2022/09/15 01:10:04;;;;;;;4.83;4.50;;;20.30;99.90;;;;;;5011347;28;20207;-87
2022/09/15 01:12:30;;;;;;;4.30;3.90;;;20.20;99.90;;;;;;5011101;28;20188;-87
2022/09/15 01:15:00;;;;;;;5.13;4.60;;;20.20;99.90;;;;;;5008199;28;20192;-86
2022/09/15 01:17:56;;;;;;;5.63;5.17;;;20.20;99.90;;;;;;5010582;28;20744;-87
2022/09/15 01:20:32;;;;;;;4.63;4.30;;;20.20;99.90;;;;;;5009991;28;20200;-86
2022/09/15 01:23:13;;;;;;;7.80;5.07;;;20.20;99.90;;;;;;5010477;28;20185;-85
2022/09/15 01:25:45;;;;;;;4.87;4.47;;;20.20;99.90;;;;;;5010343;28;20716;-84
2022/09/15 01:28:20;;;;;;;5.33;4.80;;;20.20;99.90;;;;;;5010463;28;20685;-86
2022/09/15 01:30:58;;;;;;;7.10;4.73;;;20.20;99.90;;;;;;5009909;28;20161;-86
2022/09/15 01:33:47;;;;;;;5.07;4.47;;;20.20;99.90;;;;;;5019669;28;20180;-85
2022/09/15 01:36:24;;;;;;;4.90;4.50;;;20.20;99.90;;;;;;5037489;28;20185;-85
2022/09/15 01:39:04;;;;;;;5.37;4.87;;;20.20;99.90;;;;;;5021711;28;20885;-84
2022/09/15 01:41:34;;;;;;;5.00;4.50;;;20.20;99.90;;;;;;5010133;28;20164;-85
2022/09/15 01:44:11;;;;;;;5.10;4.70;;;20.20;99.90;;;;;;5010104;28;20556;-85
2022/09/15 01:46:45;;;;;;;5.20;4.80;;;20.20;99.90;;;;;;5009190;28;20569;-84
2022/09/15 01:49:16;;;;;;;5.53;5.03;;;20.20;99.90;;;;;;5011632;28;20188;-84
2022/09/15 01:51:43;;;;;;;5.50;4.67;;;20.10;99.90;;;;;;5014854;28;20173;-87
2022/09/15 01:54:10;;;;;;;5.30;4.80;;;20.00;99.90;;;;;;5012639;28;20184;-86
2022/09/15 01:56:38;;;;;;;4.50;4.10;;;20.00;99.90;;;;;;5010423;28;20856;-87
2022/09/15 01:59:04;;;;;;;4.67;4.20;;;19.90;99.90;;;;;;5010267;28;20201;-85
2022/09/15 02:01:35;;;;;;;4.53;4.23;;;20.00;99.90;;;;;;5010037;28;20169;-85
2022/09/15 02:04:10;;;;;;;6.50;4.70;;;20.00;99.90;;;;;;5008882;28;20184;-85
2022/09/15 02:06:57;;;;;;;4.80;4.50;;;20.00;99.90;;;;;;5010235;28;20169;-85
2022/09/15 02:09:39;;;;;;;4.43;4.13;;;19.90;99.90;;;;;;5008654;28;20192;-86
2022/09/15 02:12:26;;;;;;;4.97;4.57;;;19.90;99.90;;;;;;5010416;28;20621;-88
2022/09/15 02:15:02;;;;;;;4.33;4.03;;;19.90;99.90;;;;;;5010114;28;20220;-87
2022/09/15 02:17:31;;;;;;;4.47;4.00;;;19.90;99.90;;;;;;5010019;28;20203;-85
2022/09/15 02:20:05;;;;;;;4.57;4.17;;;19.90;99.90;;;;;;5010031;28;20177;-83
2022/09/15 02:22:36;;;;;;;3.60;3.30;;;19.90;99.90;;;;;;5010617;28;20179;-84
2022/09/15 02:25:13;;;;;;;3.73;3.43;;;19.90;99.90;;;;;;5010820;28;20185;-85
2022/09/15 02:27:53;;;;;;;3.47;3.07;;;19.80;99.90;;;;;;5009933;28;20161;-85
2022/09/15 02:30:20;;;;;;;4.73;3.87;;;19.90;99.90;;;;;;5010007;28;20161;-84
2022/09/15 02:33:07;;;;;;;3.93;3.33;;;19.90;99.90;;;;;;5010127;28;20169;-85
2022/09/15 02:35:35;;;;;;;4.10;3.77;;;19.80;99.90;;;;;;5010031;28;20178;-85
2022/09/15 02:38:04;;;;;;;3.70;3.50;;;19.80;99.90;;;;;;5010415;28;20213;-85
2022/09/15 02:40:31;;;;;;;3.70;3.50;;;19.90;99.90;;;;;;5012631;28;20205;-87
2022/09/15 02:43:02;;;;;;;4.30;3.93;;;19.80;99.90;;;;;;5010090;28;20660;-86
2022/09/15 02:45:29;;;;;;;3.77;3.53;;;19.80;99.90;;;;;;5009825;28;20248;-84
2022/09/15 02:47:56;;;;;;;4.70;4.00;;;19.80;99.90;;;;;;5009706;28;20177;-85
2022/09/15 02:50:24;;;;;;;3.97;3.77;;;19.80;99.90;;;;;;5009735;28;20201;-85
2022/09/15 02:52:50;;;;;;;4.80;4.03;;;19.80;99.90;;;;;;5009532;28;20166;-86
2022/09/15 02:55:16;;;;;;;4.27;3.97;;;19.80;99.90;;;;;;5008489;28;20184;-87
2022/09/15 02:57:41;;;;;;;4.50;4.10;;;19.80;99.90;;;;;;5009984;28;20205;-85
2022/09/15 03:00:12;;;;;;;4.63;4.23;;;19.80;99.90;;;;;;5011687;28;20203;-85
2022/09/15 03:02:51;;;;;;;4.30;4.00;;;19.80;99.90;;;;;;5013062;28;20252;-85
2022/09/15 03:05:22;;;;;;;4.60;4.13;;;19.80;99.90;;;;;;5011720;28;20177;-85
2022/09/15 03:07:49;;;;;;;4.83;3.70;;;19.70;99.90;;;;;;5013005;28;20508;-85
2022/09/15 03:10:15;;;;;;;7.00;4.07;;;19.70;99.90;;;;;;5013273;28;20182;-86
2022/09/15 03:12:47;;;;;;;5.80;4.03;;;19.70;99.90;;;;;;5020072;28;20229;-85
2022/09/15 03:15:16;;;;;;;4.30;3.97;;;19.60;99.90;;;;;;5038335;28;20153;-85
2022/09/15 03:17:43;;;;;;;3.70;3.40;;;19.50;99.90;;;;;;5028279;28;20555;-88
2022/09/15 03:20:12;;;;;;;4.07;3.63;;;19.60;99.90;;;;;;5014746;28;20177;-86
2022/09/15 03:22:38;;;;;;;7.37;3.93;;;19.50;99.90;;;;;;5013212;28;20203;-87
2022/09/15 03:25:05;;;;;;;5.83;3.60;;;19.40;99.90;;;;;;5013195;28;20185;-84
2022/09/15 03:27:31;;;;;;;6.23;4.27;;;19.30;99.90;;;;;;5012754;28;20177;-87
2022/09/15 03:29:57;;;;;;;4.40;4.00;;;19.30;99.90;;;;;;5012671;28;20288;-88
2022/09/15 03:32:23;;;;;;;4.33;4.00;;;19.20;99.90;;;;;;5011463;28;20197;-87
2022/09/15 03:34:49;;;;;;;5.27;4.20;;;19.10;99.90;;;;;;5012458;28;20268;-85
2022/09/15 03:37:15;;;;;;;4.70;4.30;;;19.10;99.90;;;;;;5012589;28;20224;-86
2022/09/15 03:39:41;;;;;;;5.67;3.80;;;19.10;99.90;;;;;;5012140;28;20716;-84
2022/09/15 03:42:07;;;;;;;4.43;4.00;;;19.00;99.90;;;;;;5012727;28;20229;-84
2022/09/15 03:44:34;;;;;;;4.90;4.50;;;18.90;99.90;;;;;;5012934;28;20177;-85
2022/09/15 03:47:00;;;;;;;6.33;4.23;;;18.90;99.90;;;;;;5012651;28;20180;-84
2022/09/15 03:49:26;;;;;;;4.80;4.30;;;18.90;99.90;;;;;;5012764;28;20170;-84
2022/09/15 03:51:52;;;;;;;4.57;4.17;;;18.90;99.90;;;;;;5012407;28;20183;-87
2022/09/15 03:54:18;;;;;;;4.57;4.13;;;18.80;99.90;;;;;;5012180;28;20173;-87
2022/09/15 03:56:47;;;;;;;4.27;3.97;;;18.70;99.90;;;;;;5012140;28;20180;-87
2022/09/15 03:59:17;;;;;;;3.70;3.50;;;18.70;99.90;;;;;;5010809;28;20216;-86
2022/09/15 04:01:44;;;;;;;4.37;4.03;;;18.70;99.90;;;;;;5012132;28;20170;-87
2022/09/15 04:04:10;;;;;;;5.10;3.90;;;18.70;99.90;;;;;;5012093;28;20173;-86
2022/09/15 04:06:37;;;;;;;4.17;3.97;;;18.70;99.90;;;;;;5012291;28;20165;-87
2022/09/15 04:09:03;;;;;;;4.70;4.13;;;18.80;99.90;;;;;;5011479;28;20172;-86
2022/09/15 04:11:31;;;;;;;4.07;3.67;;;18.80;99.90;;;;;;5011460;28;20598;-86
2022/09/15 04:14:00;;;;;;;4.30;4.00;;;18.80;99.90;;;;;;5012021;28;20906;-86
2022/09/15 04:16:29;;;;;;;4.43;4.00;;;18.90;99.90;;;;;;5010545;28;20704;-85
2022/09/15 04:18:55;;;;;;;3.90;3.70;;;18.90;99.90;;;;;;5011602;28;20665;-84
2022/09/15 04:21:23;;;;;;;3.77;3.47;;;18.90;99.90;;;;;;5011730;28;20176;-85
2022/09/15 04:23:50;;;;;;;4.03;3.63;;;19.00;99.90;;;;;;5014551;28;20240;-85
2022/09/15 04:26:20;;;;;;;4.50;4.10;;;19.10;99.90;;;;;;5012627;28;20547;-86
2022/09/15 04:28:45;;;;;;;4.23;3.93;;;19.10;99.90;;;;;;5010555;28;20284;-85
2022/09/15 04:31:13;;;;;;;5.03;3.63;;;19.10;99.90;;;;;;5011836;28;20174;-85
2022/09/15 04:33:41;;;;;;;3.50;3.30;;;19.10;99.90;;;;;;5011664;28;20185;-89
2022/09/15 04:36:15;;;;;;;3.70;3.50;;;19.10;99.90;;;;;;5012256;28;20170;-89
2022/09/15 04:38:41;;;;;;;4.77;3.57;;;19.10;99.90;;;;;;5009815;28;20981;-87
2022/09/15 04:41:07;;;;;;;4.63;3.83;;;19.00;99.90;;;;;;5011550;28;20818;-88
2022/09/15 04:43:34;;;;;;;4.20;3.80;;;19.10;99.90;;;;;;5009829;28;20213;-87
2022/09/15 04:46:00;;;;;;;3.90;3.60;;;19.10;99.90;;;;;;5009837;28;20618;-87
2022/09/15 04:48:26;;;;;;;3.80;3.60;;;19.10;99.90;;;;;;5011116;28;20652;-89
2022/09/15 04:50:52;;;;;;;4.07;3.73;;;19.10;99.90;;;;;;5028557;28;20174;-87
2022/09/15 04:53:18;;;;;;;4.23;3.93;;;19.10;99.90;;;;;;5037166;28;20196;-87
2022/09/15 04:55:44;;;;;;;4.87;3.70;;;19.20;99.90;;;;;;5024042;28;20253;-87
2022/09/15 04:58:10;;;;;;;5.43;3.90;;;19.10;99.90;;;;;;5012117;28;20220;-89
2022/09/15 05:00:41;;;;;;;4.20;3.80;;;19.00;99.90;;;;;;5012190;28;20228;-87
2022/09/15 05:03:11;;;;;;;4.50;4.10;;;19.10;99.90;;;;;;5012206;28;20228;-84
2022/09/15 05:05:38;;;;;;;4.37;4.00;;;19.10;99.90;;;;;;5012127;28;20177;-84
2022/09/15 05:08:04;;;;;;;4.33;3.97;;;19.20;99.90;;;;;;5010298;28;20208;-86
2022/09/15 05:10:29;;;;;;;4.57;4.17;;;19.20;99.90;;;;;;5011277;28;20236;-85
2022/09/15 05:12:55;;;;;;;5.03;4.50;;;19.30;99.90;;;;;;5011396;28;20174;-86
2022/09/15 05:15:23;;;;;;;4.93;4.43;;;19.30;99.90;;;;;;5009401;28;20728;-85
2022/09/15 05:17:48;;;;;;;4.60;4.20;;;19.20;99.90;;;;;;5009299;28;20216;-87
2022/09/15 05:20:15;;;;;;;6.17;4.17;;;19.30;99.90;;;;;;5010593;28;20177;-87
2022/09/15 05:22:40;;;;;;;5.10;4.40;;;19.30;99.90;;;;;;5009249;28;20193;-87
2022/09/15 05:25:06;;;;;;;6.07;4.67;;;19.30;99.90;;;;;;5009474;28;20181;-87
2022/09/15 05:27:32;;;;;;;4.77;4.37;;;19.20;99.90;;;;;;5009090;28;20396;-88
2022/09/15 05:29:58;;;;;;;5.67;4.47;;;19.20;99.90;;;;;;5011844;28;20264;-87
2022/09/15 05:32:25;;;;;;;6.13;4.27;;;19.30;99.90;;;;;;5010906;28;20184;-88
2022/09/15 05:34:51;;;;;;;5.60;4.20;;;19.30;99.90;;;;;;5011089;28;20591;-83
2022/09/15 05:37:17;;;;;;;4.70;4.17;;;19.30;99.90;;;;;;5010810;28;20177;-87
2022/09/15 05:39:42;;;;;;;4.70;4.27;;;19.30;99.90;;;;;;5010351;28;20228;-88
2022/09/15 05:42:08;;;;;;;9.27;5.00;;;19.30;99.90;;;;;;5010975;28;20278;-87
2022/09/15 05:44:34;;;;;;;24.23;7.03;;;19.30;99.90;;;;;;5010259;28;20184;-86
2022/09/15 05:47:00;;;;;;;6.60;5.20;;;19.30;99.90;;;;;;5008793;28;20185;-86
2022/09/15 05:49:28;;;;;;;14.27;5.50;;;19.20;99.90;;;;;;5009376;28;20264;-87
2022/09/15 05:51:54;;;;;;;9.07;4.90;;;19.20;99.90;;;;;;5009544;28;20351;-85
2022/09/15 05:54:20;;;;;;;16.20;5.60;;;19.20;99.90;;;;;;5010617;28;20181;-85
2022/09/15 05:56:46;;;;;;;11.20;4.60;;;19.20;99.90;;;;;;5010537;28;20177;-86
2022/09/15 05:59:12;;;;;;;4.37;4.07;;;19.20;99.90;;;;;;5010716;28;20287;-86
2022/09/15 06:01:38;;;;;;;5.10;4.63;;;19.10;99.90;;;;;;5011069;28;20649;-86
2022/09/15 06:04:04;;;;;;;5.57;4.63;;;19.10;99.90;;;;;;5011328;28;20264;-84
2022/09/15 06:06:31;;;;;;;5.50;4.43;;;19.10;99.90;;;;;;5010660;28;20179;-85
2022/09/15 06:08:57;;;;;;;5.00;4.07;;;19.10;99.90;;;;;;5012459;28;20177;-86
2022/09/15 06:11:26;;;;;;;5.17;4.43;;;19.10;99.90;;;;;;5013650;28;20184;-86
2022/09/15 06:13:52;;;;;;;4.80;4.30;;;19.10;99.90;;;;;;5010772;28;20645;-86
2022/09/15 06:16:21;;;;;;;4.27;3.97;;;19.20;99.90;;;;;;5008954;28;20269;-85
2022/09/15 06:18:49;;;;;;;5.40;4.50;;;19.20;99.90;;;;;;5010510;28;20205;-86
2022/09/15 06:21:17;;;;;;;5.50;4.10;;;19.30;99.90;;;;;;5011307;28;20270;-85
2022/09/15 06:23:44;;;;;;;4.70;4.30;;;19.30;99.90;;;;;;5010658;28;20182;-86
2022/09/15 06:26:17;;;;;;;5.20;4.53;;;19.50;99.90;;;;;;5012944;28;20535;-84
2022/09/15 06:28:51;;;;;;;6.37;4.80;;;19.40;99.90;;;;;;5016286;28;20372;-87
2022/09/15 06:31:17;;;;;;;8.53;4.23;;;19.50;99.90;;;;;;5032908;28;20165;-85
2022/09/15 06:33:46;;;;;;;4.57;4.17;;;19.40;99.90;;;;;;5031397;28;20196;-87
2022/09/15 06:36:13;;;;;;;8.80;4.20;;;19.30;99.90;;;;;;5016886;28;20184;-85
2022/09/15 06:38:40;;;;;;;6.40;4.40;;;19.30;99.90;;;;;;5020794;28;20233;-85
2022/09/15 06:41:06;;;;;;;5.20;4.10;;;19.30;99.90;;;;;;5018481;28;20180;-86
2022/09/15 06:43:33;;;;;;;5.93;4.23;;;19.30;99.90;;;;;;5018784;28;20188;-88
2022/09/15 06:46:11;;;;;;;4.33;4.00;;;19.30;99.90;;;;;;5017907;28;20185;-88
2022/09/15 06:48:38;;;;;;;11.83;5.87;;;19.40;99.90;;;;;;5016425;28;20212;-87
2022/09/15 06:51:06;;;;;;;4.63;4.23;;;19.40;99.90;;;;;;5017422;28;20239;-87
2022/09/15 06:53:33;;;;;;;6.43;3.80;;;19.50;99.90;;;;;;5015794;28;20215;-86
2022/09/15 06:56:08;;;;;;;12.10;4.30;;;19.60;99.90;;;;;;5016976;28;20173;-87
2022/09/15 06:58:35;;;;;;;9.77;4.60;;;19.80;99.90;;;;;;5016762;28;20418;-88
2022/09/15 07:01:08;;;;;;;6.87;4.43;;;19.90;99.90;;;;;;5018761;28;20172;-86
2022/09/15 07:03:35;;;;;;;11.33;4.73;;;20.00;99.90;;;;;;5018767;28;20174;-87
2022/09/15 07:06:02;;;;;;;58.77;8.40;;;20.10;99.90;;;;;;5012317;28;20191;-86
2022/09/15 07:08:28;;;;;;;42.73;7.20;;;20.10;99.90;;;;;;5014139;28;20192;-86
2022/09/15 07:10:56;;;;;;;10.33;4.77;;;20.20;99.90;;;;;;5018399;28;20192;-86
2022/09/15 07:13:23;;;;;;;25.40;5.93;;;20.30;99.90;;;;;;5016114;28;20219;-86
2022/09/15 07:15:53;;;;;;;11.93;4.47;;;20.40;99.90;;;;;;5016369;28;20185;-86
2022/09/15 07:18:19;;;;;;;10.87;4.53;;;20.60;99.90;;;;;;5017355;28;20315;-87
2022/09/15 07:20:45;;;;;;;9.03;4.93;;;20.80;99.90;;;;;;5014764;28;20181;-87
2022/09/15 07:23:10;;;;;;;7.23;4.13;;;21.00;99.90;;;;;;5017532;28;20211;-86
2022/09/15 07:25:36;;;;;;;4.77;3.70;;;21.10;99.90;;;;;;5016057;28;20649;-86
2022/09/15 07:28:02;;;;;;;7.70;4.30;;;21.30;99.90;;;;;;5016679;28;20209;-85
2022/09/15 07:30:28;;;;;;;3.67;3.47;;;21.20;99.90;;;;;;5015442;28;20173;-87
2022/09/15 07:32:54;;;;;;;8.13;3.80;;;21.10;99.90;;;;;;5018475;28;20233;-88
2022/09/15 07:35:20;;;;;;;8.87;4.83;;;21.00;99.90;;;;;;5016959;28;20530;-88
2022/09/15 07:37:47;;;;;;;4.00;3.43;;;21.00;99.90;;;;;;5014902;28;20220;-86
2022/09/15 07:40:14;;;;;;;3.70;3.40;;;21.00;99.90;;;;;;5013070;28;20221;-88
2022/09/15 07:42:43;;;;;;;9.13;3.73;;;20.90;99.90;;;;;;5013512;28;20521;-88
2022/09/15 07:45:11;;;;;;;7.37;3.53;;;21.10;99.90;;;;;;5016178;28;20320;-87
2022/09/15 07:47:37;;;;;;;6.80;3.20;;;21.20;99.90;;;;;;5014172;28;20179;-87
2022/09/15 07:50:04;;;;;;;3.67;3.23;;;21.30;99.90;;;;;;5013575;28;20177;-87
2022/09/15 07:52:30;;;;;;;4.17;3.67;;;21.40;99.90;;;;;;5014352;28;20173;-87
2022/09/15 07:54:56;;;;;;;4.37;3.03;;;21.50;99.90;;;;;;5017025;28;20180;-87
2022/09/15 07:57:22;;;;;;;8.33;4.13;;;21.70;99.90;;;;;;5020170;28;20199;-87
2022/09/15 07:59:48;;;;;;;3.37;3.03;;;21.90;99.90;;;;;;5012681;28;20205;-87
2022/09/15 08:02:16;;;;;;;5.00;3.67;;;22.00;99.90;;;;;;5013787;28;20180;-85
2022/09/15 08:04:43;;;;;;;10.00;5.13;;;22.20;99.90;;;;;;5015102;28;20185;-86
2022/09/15 08:07:09;;;;;;;4.10;2.83;;;22.20;99.90;;;;;;5014440;28;20169;-86
2022/09/15 08:09:39;;;;;;;7.27;3.20;;;22.30;99.90;;;;;;5036015;28;20195;-87
2022/09/15 08:12:06;;;;;;;14.73;6.80;;;22.50;99.90;;;;;;5033634;28;20173;-89
2022/09/15 08:14:33;;;;;;;3.17;2.43;;;22.60;99.90;;;;;;5015433;28;20173;-88
2022/09/15 08:17:00;;;;;;;2.70;2.60;;;22.70;99.90;;;;;;5013262;28;20174;-88
2022/09/15 08:19:27;;;;;;;7.82;2.45;;;22.70;99.90;;;;;;5012651;28;20247;-87
2022/09/15 08:21:52;;;;;;;3.33;2.90;;;22.80;99.90;;;;;;5013773;28;20177;-86
2022/09/15 08:24:18;;;;;;;6.50;3.45;;;22.90;99.90;;;;;;5013254;28;20260;-86
2022/09/15 08:26:45;;;;;;;2.88;2.67;;;23.10;99.90;;;;;;5013204;28;20196;-87
2022/09/15 08:29:12;;;;;;;2.43;2.17;;;23.30;99.90;;;;;;5011941;28;20181;-88
2022/09/15 08:31:38;;;;;;;3.43;2.57;;;23.30;99.90;;;;;;5012243;28;20656;-86
2022/09/15 08:34:05;;;;;;;2.58;2.38;;;23.20;99.90;;;;;;5012053;28;20213;-86
2022/09/15 08:36:33;;;;;;;7.45;2.20;;;23.00;99.90;;;;;;5010625;28;20193;-86
2022/09/15 08:38:59;;;;;;;3.45;2.40;;;22.80;99.90;;;;;;5012238;28;20243;-87
2022/09/15 08:41:32;;;;;;;4.47;2.53;;;22.80;99.90;;;;;;5011171;28;20216;-87
2022/09/15 08:44:21;;;;;;;2.30;2.05;;;22.90;99.90;;;;;;5013833;28;20177;-89
2022/09/15 08:47:03;;;;;;;4.85;2.53;;;22.90;99.90;;;;;;5012424;28;20176;-87
2022/09/15 08:49:41;;;;;;;17.85;4.47;;;22.80;99.90;;;;;;5011914;28;20239;-88
2022/09/15 08:52:15;;;;;;;24.48;3.38;;;22.80;99.90;;;;;;5010539;28;20728;-88
2022/09/15 08:54:41;;;;;;;15.32;3.28;;;23.00;99.90;;;;;;5011598;28;20248;-88
2022/09/15 08:57:13;;;;;;;44.67;7.65;;;23.10;99.90;;;;;;5011271;28;20301;-88
2022/09/15 08:59:39;;;;;;;23.90;4.47;;;23.40;99.90;;;;;;5011765;28;20165;-87
2022/09/15 09:02:11;;;;;;;33.85;4.50;;;23.40;99.90;;;;;;5012014;28;20175;-88
2022/09/15 09:04:56;;;;;;;26.77;4.18;;;23.60;99.90;;;;;;5011770;28;20169;-88
2022/09/15 09:07:33;;;;;;;16.25;3.35;;;23.70;99.90;;;;;;5011266;28;20157;-86
2022/09/15 09:10:09;;;;;;;5.10;2.10;;;23.80;99.90;;;;;;5011586;28;20161;-86
2022/09/15 09:12:49;;;;;;;11.83;3.43;;;23.80;99.90;;;;;;5013736;28;20172;-87
2022/09/15 09:15:18;;;;;;;5.18;3.15;;;23.60;99.90;;;;;;5014861;28;20168;-83
2022/09/15 09:18:03;;;;;;;14.23;2.35;;;23.60;99.90;;;;;;5014433;28;20196;-85
2022/09/15 09:20:38;;;;;;;2.67;2.05;;;23.40;99.90;;;;;;5014200;28;20173;-87
2022/09/15 09:23:10;;;;;;;2.20;1.98;;;23.40;99.90;;;;;;5013573;28;20179;-84
2022/09/15 09:25:39;;;;;;;5.03;2.13;;;23.40;99.90;;;;;;5013057;28;20312;-85
2022/09/15 09:28:31;;;;;;;2.83;2.58;;;23.40;99.90;;;;;;5012133;28;20188;-85
2022/09/15 09:31:14;;;;;;;6.97;2.50;;;23.40;99.90;;;;;;5011144;28;20259;-85
2022/09/15 09:33:58;;;;;;;4.93;2.30;;;23.40;99.90;;;;;;5012250;28;20673;-84
2022/09/15 09:36:25;;;;;;;2.35;2.15;;;23.50;99.90;;;;;;5011851;28;20200;-85
2022/09/15 09:38:51;;;;;;;3.42;2.20;;;23.60;99.90;;;;;;5011784;28;20237;-85
2022/09/15 09:41:27;;;;;;;4.88;2.10;;;23.70;99.90;;;;;;5013216;28;20204;-86
2022/09/15 09:43:55;;;;;;;6.60;2.50;;;23.80;99.90;;;;;;5023226;28;20154;-84
2022/09/15 09:46:21;;;;;;;14.35;3.22;;;23.90;99.90;;;;;;5019710;28;20268;-89
2022/09/15 09:49:06;;;;;;;11.77;2.92;;;24.00;99.90;;;;;;5035476;28;20160;-88
2022/09/15 09:52:02;;;;;;;5.63;2.00;;;24.00;99.90;;;;;;5031623;28;20165;-87
2022/09/15 09:54:31;;;;;;;3.42;2.33;;;24.10;99.90;;;;;;5011540;28;20517;-89
2022/09/15 09:57:12;;;;;;;12.20;4.10;;;24.00;99.90;;;;;;5011132;28;20264;-87
2022/09/15 09:59:48;;;;;;;3.25;2.40;;;23.90;99.90;;;;;;5011468;28;20276;-88
2022/09/15 10:02:19;;;;;;;9.93;3.00;;;23.90;99.90;;;;;;5011080;28;20177;-89
2022/09/15 10:04:48;;;;;;;11.25;3.13;;;23.80;99.90;;;;;;5011184;28;20165;-87
2022/09/15 10:07:16;;;;;;;7.40;3.30;;;23.70;99.90;;;;;;5011239;28;20181;-86
2022/09/15 10:09:57;;;;;;;7.32;2.63;;;23.60;99.90;;;;;;5014862;28;20187;-87
2022/09/15 10:12:39;;;;;;;11.93;2.97;;;23.60;99.90;;;;;;5014936;28;20177;-85
2022/09/15 10:15:21;;;;;;;3.92;2.30;;;23.50;99.90;;;;;;5015384;28;20622;-86
2022/09/15 10:17:49;;;;;;;4.07;2.40;;;23.40;99.90;;;;;;5014966;28;20288;-86
2022/09/15 10:20:31;;;;;;;4.25;2.10;;;23.30;99.90;;;;;;5015388;28;20177;-87
2022/09/15 10:23:20;;;;;;;4.00;2.17;;;23.30;99.90;;;;;;5014932;28;20245;-85
2022/09/15 10:25:46;;;;;;;3.42;2.22;;;23.40;99.90;;;;;;5015826;28;20160;-87
2022/09/15 10:28:20;;;;;;;3.60;2.50;;;23.40;99.90;;;;;;5015029;28;20531;-86
2022/09/15 10:31:05;;;;;;;3.20;2.30;;;23.40;99.90;;;;;;5015472;28;20307;-86
2022/09/15 10:33:34;;;;;;;3.75;1.67;;;23.30;99.90;;;;;;5013569;28;20181;-87
2022/09/15 10:36:04;;;;;;;2.40;1.80;;;23.20;99.90;;;;;;5014575;28;20248;-86
2022/09/15 10:38:52;;;;;;;1.65;1.65;;;22.90;99.90;;;;;;5014241;28;20221;-85
2022/09/15 10:41:27;;;;;;;2.50;2.40;;;22.80;99.90;;;;;;5014378;28;20166;-86
2022/09/15 10:44:17;;;;;;;2.73;1.80;;;22.50;99.90;;;;;;5013984;28;20171;-87
2022/09/15 10:47:05;;;;;;;4.00;1.70;;;22.40;99.90;;;;;;5014414;28;20573;-86
2022/09/15 10:49:50;;;;;;;1.57;1.47;;;22.00;99.90;;;;;;5014506;28;20165;-86
2022/09/15 10:52:31;;;;;;;3.63;1.73;;;21.80;99.90;;;;;;5014394;28;20546;-85
2022/09/15 10:55:15;;;;;;;2.60;1.83;;;21.60;99.90;;;;;;5012201;28;20580;-85
2022/09/15 10:57:59;;;;;;;2.07;1.30;;;21.50;99.90;;;;;;5012577;28;20208;-86
2022/09/15 11:00:42;;;;;;;1.50;1.40;;;21.30;99.90;;;;;;5014248;28;20169;-85
2022/09/15 11:03:26;;;;;;;3.40;1.60;;;21.20;99.90;;;;;;5013729;28;20160;-86
2022/09/15 11:06:04;;;;;;;2.07;1.30;;;21.00;99.90;;;;;;5012505;28;20173;-85
2022/09/15 11:08:38;;;;;;;2.87;1.40;;;20.90;99.90;;;;;;5014748;28;20251;-86
2022/09/15 11:11:12;;;;;;;2.40;1.50;;;20.90;99.90;;;;;;5013570;28;20228;-85
2022/09/15 11:14:07;;;;;;;1.93;1.83;;;20.80;99.90;;;;;;5014755;28;20161;-86
2022/09/15 11:17:00;;;;;;;2.77;1.50;;;20.80;99.90;;;;;;5014308;28;20523;-87
2022/09/15 11:19:38;;;;;;;1.67;1.57;;;20.80;99.90;;;;;;5013420;28;20579;-87
2022/09/15 11:22:07;;;;;;;2.73;2.00;;;20.90;99.90;;;;;;5013630;28;20200;-85
2022/09/15 11:24:42;;;;;;;1.47;1.40;;;20.90;99.90;;;;;;5021378;28;20169;-87
2022/09/15 11:27:28;;;;;;;4.60;1.93;;;20.70;99.90;;;;;;5037976;28;20154;-85
2022/09/15 11:30:15;;;;;;;2.17;1.70;;;20.50;99.90;;;;;;5031077;28;20184;-85
2022/09/15 11:32:47;;;;;;;2.27;1.87;;;20.40;99.90;;;;;;5014457;28;20629;-88
2022/09/15 11:35:50;;;;;;;1.70;1.60;;;20.30;99.90;;;;;;5011378;28;20197;-87
2022/09/15 11:38:36;;;;;;;2.00;1.80;;;20.20;99.90;;;;;;5012683;28;20221;-86
2022/09/15 11:41:16;;;;;;;2.07;1.73;;;20.00;99.90;;;;;;5013519;28;20165;-86
2022/09/15 11:43:46;;;;;;;2.47;1.97;;;20.00;99.90;;;;;;5013338;28;20177;-86
2022/09/15 11:46:24;;;;;;;2.43;1.90;;;20.10;99.90;;;;;;5013104;28;20184;-85
2022/09/15 11:48:57;;;;;;;2.13;1.93;;;20.30;99.90;;;;;;5013207;28;20165;-88
2022/09/15 11:51:28;;;;;;;2.77;2.20;;;20.50;99.90;;;;;;5012783;28;20165;-88
2022/09/15 11:54:12;;;;;;;3.20;1.80;;;20.70;99.90;;;;;;5012880;28;20602;-86
2022/09/15 11:56:43;;;;;;;2.60;1.93;;;20.90;99.90;;;;;;5014206;28;20157;-86
2022/09/15 11:59:27;;;;;;;2.07;1.93;;;21.00;99.90;;;;;;5012878;28;20228;-88
2022/09/15 12:02:21;;;;;;;2.73;2.20;;;21.30;99.90;;;;;;5010964;28;20696;-87
2022/09/15 12:05:05;;;;;;;3.27;1.70;;;21.70;99.90;;;;;;5012327;28;20157;-88
2022/09/15 12:07:39;;;;;;;2.40;1.70;;;21.90;99.90;;;;;;5012275;28;20300;-86
2022/09/15 12:10:14;;;;;;;2.37;1.70;;;21.90;99.90;;;;;;5013648;28;20566;-87
2022/09/15 12:12:42;;;;;;;1.80;1.70;;;22.00;99.90;;;;;;5016552;28;20233;-88
2022/09/15 12:15:15;;;;;;;2.47;2.10;;;22.00;99.90;;;;;;5015224;28;20205;-88
2022/09/15 12:18:00;;;;;;;3.20;1.70;;;22.10;99.90;;;;;;5013932;28;20255;-87
2022/09/15 12:20:43;;;;;;;2.63;1.80;;;22.30;99.90;;;;;;5014856;28;20161;-87
2022/09/15 12:23:24;;;;;;;1.83;1.70;;;22.50;99.90;;;;;;5016361;28;20188;-88
2022/09/15 12:25:59;;;;;;;7.47;1.90;;;22.60;99.90;;;;;;5015939;28;20172;-88
2022/09/15 12:28:40;;;;;;;1.43;1.33;;;22.60;99.90;;;;;;5014750;28;20184;-88
2022/09/15 12:31:37;;;;;;;1.20;1.20;;;22.50;99.90;;;;;;5011785;28;20172;-87
2022/09/15 12:34:28;;;;;;;1.40;1.30;;;22.40;99.90;;;;;;5015450;28;20165;-89
2022/09/15 12:37:13;;;;;;;1.20;1.10;;;22.30;99.90;;;;;;5013669;28;20178;-89
2022/09/15 12:39:40;;;;;;;1.10;1.10;;;22.10;99.90;;;;;;5013513;28;20229;-89
2022/09/15 12:42:09;;;;;;;1.63;1.53;;;22.10;99.90;;;;;;5011596;28;20227;-89
2022/09/15 12:44:41;;;;;;;3.13;1.43;;;22.20;99.90;;;;;;5011619;28;20271;-88
2022/09/15 12:47:30;;;;;;;1.90;1.70;;;22.20;99.90;;;;;;5011537;28;20231;-88
2022/09/15 12:50:24;;;;;;;1.33;1.30;;;22.10;99.90;;;;;;5010141;28;20649;-87
2022/09/15 12:52:57;;;;;;;1.40;1.30;;;22.00;99.90;;;;;;5007714;28;20549;-87
2022/09/15 12:55:26;;;;;;;5.03;1.40;;;22.00;99.90;;;;;;5012706;28;20169;-89
2022/09/15 12:57:55;;;;;;;1.53;1.47;;;22.10;99.90;;;;;;5015886;28;20280;-87
2022/09/15 13:00:40;;;;;;;2.37;1.57;;;22.30;99.90;;;;;;5015650;28;20180;-88
2022/09/15 13:03:48;;;;;;;2.30;1.50;;;22.40;99.90;;;;;;5016561;28;20204;-87
2022/09/15 13:06:21;;;;;;;2.83;1.40;;;22.50;99.90;;;;;;5035542;28;20187;-88
2022/09/15 13:08:50;;;;;;;2.93;2.00;;;22.50;99.90;;;;;;5024669;28;20165;-88